Time;durP1;ratioP1;P1;durP2;ratioP2;P2;SDS_P1;SDS_P2;PMS_P1;PMS_P2;Temp;Humidity;BMP_temperature;BMP_pressure;BME280_temperature;BME280_humidity;BME280_pressure;Samples;Min_cycle;Max_cycle;Signal;HPM_P1;HPM_P2
2022/10/08 00:01:37;;;;;;;15.80;8.43;;;;;;;;;;5051529;28;20245;-82
2022/10/08 00:04:05;;;;;;;10.13;7.97;;;;;;;;;;5051006;28;20295;-83
2022/10/08 00:06:33;;;;;;;10.47;8.60;;;;;;;;;;5051654;28;20217;-83
2022/10/08 00:09:01;;;;;;;9.70;8.30;;;;;;;;;;5050761;28;20230;-83
2022/10/08 00:11:30;;;;;;;13.20;8.87;;;;;;;;;;5050793;28;20222;-83
2022/10/08 00:13:58;;;;;;;10.60;8.33;;;;;;;;;;5050970;28;20710;-84
2022/10/08 00:16:26;;;;;;;13.47;8.70;;;;;;;;;;5051154;28;20204;-83
2022/10/08 00:18:54;;;;;;;14.30;9.67;;;;;;;;;;5050816;28;20234;-83
2022/10/08 00:21:22;;;;;;;10.37;8.57;;;;;;;;;;5051377;28;20249;-83
2022/10/08 00:23:50;;;;;;;12.67;8.73;;;;;;;;;;5051909;28;20241;-83
2022/10/08 00:26:18;;;;;;;12.23;8.67;;;;;;;;;;5055130;28;20206;-83
2022/10/08 00:28:47;;;;;;;10.63;8.50;;;;;;;;;;5053988;28;20256;-83
2022/10/08 00:31:15;;;;;;;11.13;8.50;;;;;;;;;;5054541;28;20238;-83
2022/10/08 00:33:42;;;;;;;12.10;9.27;;;;;;;;;;5054133;28;20325;-83
2022/10/08 00:36:11;;;;;;;14.57;8.90;;;;;;;;;;5054695;28;20836;-83
2022/10/08 00:38:38;;;;;;;10.37;8.50;;;;;;;;;;5054037;28;20241;-83
2022/10/08 00:41:06;;;;;;;12.13;9.07;;;;;;;;;;5054733;28;20230;-83
2022/10/08 00:43:38;;;;;;;12.33;9.63;;;;;;;;;;5054039;28;20245;-83
2022/10/08 00:46:07;;;;;;;13.07;8.77;;;;;;;;;;5054782;28;20218;-83
2022/10/08 00:48:34;;;;;;;15.80;9.53;;;;;;;;;;5053951;28;20240;-84
2022/10/08 00:51:02;;;;;;;10.10;8.43;;;;;;;;;;5054832;28;20222;-83
2022/10/08 00:53:30;;;;;;;11.77;8.60;;;;;;;;;;5054252;28;20299;-83
2022/10/08 00:55:57;;;;;;;9.80;8.53;;;;;;;;;;5053797;28;20244;-83
2022/10/08 00:58:26;;;;;;;12.27;9.13;;;;;;;;;;5063686;28;20241;-83
2022/10/08 01:00:53;;;;;;;10.30;8.73;;;;;;;;;;5059939;28;20721;-83
2022/10/08 01:03:22;;;;;;;16.73;8.97;;;;;;;;;;5053952;28;20240;-83
2022/10/08 01:05:53;;;;;;;11.07;8.70;;;;;;;;;;5050396;28;20201;-83
2022/10/08 01:08:25;;;;;;;10.40;8.33;;;;;;;;;;5053801;28;20234;-83
2022/10/08 01:10:58;;;;;;;13.93;8.87;;;;;;;;;;5054256;28;20222;-83
2022/10/08 01:13:32;;;;;;;16.03;9.57;;;;;;;;;;5053747;28;20229;-82
2022/10/08 01:16:02;;;;;;;10.77;8.60;;;;;;;;;;5054315;28;20202;-83
2022/10/08 01:18:34;;;;;;;13.87;8.70;;;;;;;;;;5053305;28;20226;-83
2022/10/08 01:21:04;;;;;;;10.17;8.80;;;;;;;;;;5053955;28;20226;-84
2022/10/08 01:23:50;;;;;;;16.27;9.43;;;;;;;;;;5053693;28;20234;-83
2022/10/08 01:26:24;;;;;;;10.63;8.70;;;;;;;;;;5054129;28;20190;-83
2022/10/08 01:28:56;;;;;;;11.77;8.80;;;;;;;;;;5053506;28;20236;-83
2022/10/08 01:31:24;;;;;;;11.83;9.93;;;;;;;;;;5053556;28;20238;-84
2022/10/08 01:33:54;;;;;;;15.97;9.30;;;;;;;;;;5053127;28;20713;-83
2022/10/08 01:36:22;;;;;;;11.23;8.90;;;;;;;;;;5053237;28;20224;-83
2022/10/08 01:38:51;;;;;;;15.90;9.27;;;;;;;;;;5052901;28;20225;-83
2022/10/08 01:41:19;;;;;;;14.17;8.47;;;;;;;;;;5053628;28;20230;-84
2022/10/08 01:43:47;;;;;;;16.67;9.30;;;;;;;;;;5053032;28;20234;-83
2022/10/08 01:46:19;;;;;;;10.03;8.57;;;;;;;;;;5053299;28;20674;-83
2022/10/08 01:48:47;;;;;;;12.37;8.80;;;;;;;;;;5052856;28;20257;-83
2022/10/08 01:51:15;;;;;;;9.40;8.40;;;;;;;;;;5053562;28;20766;-83
2022/10/08 01:53:44;;;;;;;11.67;7.93;;;;;;;;;;5052947;28;20248;-83
2022/10/08 01:56:13;;;;;;;10.60;8.27;;;;;;;;;;5053227;28;20566;-83
2022/10/08 01:58:44;;;;;;;13.57;8.73;;;;;;;;;;5052634;28;20241;-83
2022/10/08 02:01:14;;;;;;;11.57;8.57;;;;;;;;;;5053313;28;20268;-84
2022/10/08 02:04:31;;;;;;;12.70;8.70;;;;;;;;;;5052919;28;20230;-84
2022/10/08 02:06:30;;;;;;;11.07;8.20;;;;;;;;;;5052780;28;20206;-83
2022/10/08 02:08:58;;;;;;;11.20;8.33;;;;;;;;;;5052379;28;20335;-84
2022/10/08 02:11:25;;;;;;;11.60;8.60;;;;;;;;;;5053235;28;20233;-83
2022/10/08 02:13:52;;;;;;;11.53;7.70;;;;;;;;;;5052539;28;20241;-83
2022/10/08 02:16:22;;;;;;;13.40;8.77;;;;;;;;;;5052839;28;20217;-84
2022/10/08 02:18:52;;;;;;;9.93;8.23;;;;;;;;;;5052085;28;20233;-84
2022/10/08 02:21:20;;;;;;;10.67;8.07;;;;;;;;;;5052917;28;20234;-83
2022/10/08 02:23:50;;;;;;;11.07;7.80;;;;;;;;;;5052241;28;20230;-83
2022/10/08 02:26:19;;;;;;;11.97;8.20;;;;;;;;;;5052849;28;20206;-84
2022/10/08 02:28:50;;;;;;;14.37;9.00;;;;;;;;;;5051964;28;20234;-83
2022/10/08 02:31:19;;;;;;;9.33;8.23;;;;;;;;;;5052458;28;20238;-84
2022/10/08 02:33:49;;;;;;;11.00;8.07;;;;;;;;;;5051914;28;20229;-84
2022/10/08 02:36:20;;;;;;;15.37;8.60;;;;;;;;;;5052723;28;20238;-83
2022/10/08 02:38:50;;;;;;;11.83;8.30;;;;;;;;;;5051677;28;20887;-84
2022/10/08 02:41:19;;;;;;;13.03;8.63;;;;;;;;;;5052450;28;20234;-83
2022/10/08 02:43:48;;;;;;;12.60;8.43;;;;;;;;;;5051749;28;20230;-83
2022/10/08 02:46:16;;;;;;;13.60;7.70;;;;;;;;;;5051904;28;20211;-83
2022/10/08 02:48:46;;;;;;;10.43;8.10;;;;;;;;;;5051589;28;20709;-83
2022/10/08 02:51:15;;;;;;;8.63;7.60;;;;;;;;;;5052729;28;20229;-84
2022/10/08 02:53:44;;;;;;;12.40;7.97;;;;;;;;;;5051694;28;20241;-83
2022/10/08 02:56:13;;;;;;;11.23;7.40;;;;;;;;;;5052313;28;20213;-83
2022/10/08 02:58:42;;;;;;;10.80;7.50;;;;;;;;;;5051599;28;20241;-83
2022/10/08 03:01:10;;;;;;;10.40;7.23;;;;;;;;;;5052059;28;20573;-83
2022/10/08 03:03:38;;;;;;;10.87;7.10;;;;;;;;;;5051786;28;20229;-83
2022/10/08 03:06:07;;;;;;;13.70;7.57;;;;;;;;;;5052254;28;20283;-83
2022/10/08 03:08:35;;;;;;;10.30;7.23;;;;;;;;;;5051422;28;20233;-84
2022/10/08 03:11:05;;;;;;;11.23;7.27;;;;;;;;;;5052131;28;20232;-83
2022/10/08 03:13:34;;;;;;;13.27;7.20;;;;;;;;;;5051533;28;20744;-83
2022/10/08 03:16:01;;;;;;;11.30;6.80;;;;;;;;;;5051882;28;20198;-83
2022/10/08 03:18:28;;;;;;;10.93;6.40;;;;;;;;;;5051311;28;20234;-83
2022/10/08 03:20:57;;;;;;;10.43;6.33;;;;;;;;;;5052002;28;20236;-83
2022/10/08 03:23:24;;;;;;;9.73;5.57;;;;;;;;;;5051413;28;20245;-83
2022/10/08 03:25:51;;;;;;;7.33;5.63;;;;;;;;;;5051924;28;20202;-83
2022/10/08 03:28:20;;;;;;;9.17;4.90;;;;;;;;;;5051052;28;20233;-83
2022/10/08 03:30:47;;;;;;;10.33;4.90;;;;;;;;;;5051418;28;20328;-83
2022/10/08 03:33:14;;;;;;;7.00;4.67;;;;;;;;;;5051421;28;20245;-84
2022/10/08 03:35:45;;;;;;;8.13;4.80;;;;;;;;;;5051937;28;20205;-83
2022/10/08 03:38:14;;;;;;;10.47;6.57;;;;;;;;;;5050985;28;20256;-83
2022/10/08 03:40:41;;;;;;;7.93;4.97;;;;;;;;;;5052309;28;20261;-90
2022/10/08 03:43:08;;;;;;;8.80;4.80;;;;;;;;;;5051340;28;20244;-90
2022/10/08 03:45:37;;;;;;;6.00;5.33;;;;;;;;;;5054086;28;20205;-89
2022/10/08 03:48:04;;;;;;;5.60;4.70;;;;;;;;;;5034833;28;20239;-89
2022/10/08 03:50:31;;;;;;;8.47;4.63;;;;;;;;;;5051737;28;20221;-89
2022/10/08 03:52:58;;;;;;;9.20;4.90;;;;;;;;;;5051750;28;20230;-90
2022/10/08 03:55:25;;;;;;;9.90;4.40;;;;;;;;;;5051948;28;20216;-89
2022/10/08 03:57:52;;;;;;;7.97;5.17;;;;;;;;;;5052238;28;20236;-90
2022/10/08 04:00:19;;;;;;;7.17;4.70;;;;;;;;;;5055718;28;20229;-90
2022/10/08 04:02:50;;;;;;;6.53;4.47;;;;;;;;;;5055331;28;20237;-90
2022/10/08 04:05:18;;;;;;;8.07;4.17;;;;;;;;;;5055505;28;20281;-90
2022/10/08 04:07:45;;;;;;;6.67;4.20;;;;;;;;;;5054754;28;20702;-90
2022/10/08 04:10:12;;;;;;;10.60;4.83;;;;;;;;;;5055123;28;20218;-90
2022/10/08 04:12:39;;;;;;;7.10;4.30;;;;;;;;;;5054961;28;20241;-90
2022/10/08 04:15:07;;;;;;;6.63;4.10;;;;;;;;;;5055524;28;20210;-89
2022/10/08 04:17:34;;;;;;;5.80;3.97;;;;;;;;;;5055235;28;20213;-89
2022/10/08 04:20:02;;;;;;;8.33;4.47;;;;;;;;;;5055239;28;20686;-89
2022/10/08 04:22:30;;;;;;;10.77;4.00;;;;;;;;;;5054914;28;20249;-90
2022/10/08 04:24:57;;;;;;;6.87;4.23;;;;;;;;;;5055388;28;20217;-90
2022/10/08 04:27:24;;;;;;;6.83;4.00;;;;;;;;;;5055014;28;20206;-89
2022/10/08 04:29:51;;;;;;;9.60;4.03;;;;;;;;;;5055339;28;20593;-90
2022/10/08 04:32:18;;;;;;;5.97;3.70;;;;;;;;;;5055276;28;20199;-90
2022/10/08 04:34:45;;;;;;;8.17;4.30;;;;;;;;;;5055466;28;20214;-90
2022/10/08 04:37:14;;;;;;;5.40;3.67;;;;;;;;;;5062706;28;20213;-89
2022/10/08 04:39:41;;;;;;;11.90;3.67;;;;;;;;;;5054724;28;20228;-89
2022/10/08 04:42:08;;;;;;;7.47;3.90;;;;;;;;;;5055084;28;20233;-90
2022/10/08 04:44:35;;;;;;;7.17;3.97;;;;;;;;;;5054285;28;20233;-90
2022/10/08 04:47:02;;;;;;;6.70;3.87;;;;;;;;;;5054722;28;20202;-90
2022/10/08 04:49:29;;;;;;;10.90;4.33;;;;;;;;;;5054127;28;20241;-90
2022/10/08 04:51:56;;;;;;;7.17;4.40;;;;;;;;;;5054980;28;20230;-90
2022/10/08 04:54:25;;;;;;;6.70;3.70;;;;;;;;;;5054232;28;20698;-91
2022/10/08 04:56:52;;;;;;;7.20;4.37;;;;;;;;;;5054759;28;20576;-90
2022/10/08 04:59:19;;;;;;;7.30;3.90;;;;;;;;;;5053958;28;20234;-90
2022/10/08 05:01:46;;;;;;;5.70;3.90;;;;;;;;;;5063763;28;20245;-90
2022/10/08 05:04:13;;;;;;;9.40;3.93;;;;;;;;;;5054538;28;20238;-90
2022/10/08 05:06:43;;;;;;;6.27;3.57;;;;;;;;;;5055376;28;20202;-90
2022/10/08 05:09:10;;;;;;;7.30;3.47;;;;;;;;;;5053878;28;20299;-92
2022/10/08 05:11:38;;;;;;;4.17;3.57;;;;;;;;;;5055421;28;20226;-92
2022/10/08 05:14:05;;;;;;;7.33;4.10;;;;;;;;;;5055018;28;20241;-92
2022/10/08 05:16:33;;;;;;;9.13;3.73;;;;;;;;;;5055249;28;20198;-91
2022/10/08 05:19:00;;;;;;;6.00;3.77;;;;;;;;;;5054745;28;20717;-92
2022/10/08 05:21:28;;;;;;;5.77;3.93;;;;;;;;;;5054783;28;20229;-92
2022/10/08 05:23:56;;;;;;;5.47;3.80;;;;;;;;;;5054323;28;20268;-91
2022/10/08 05:26:24;;;;;;;4.50;3.67;;;;;;;;;;5054965;28;20217;-92
2022/10/08 05:28:54;;;;;;;6.60;4.10;;;;;;;;;;5054319;28;20245;-92
2022/10/08 05:31:21;;;;;;;8.17;4.43;;;;;;;;;;5054544;28;20717;-92
2022/10/08 05:33:48;;;;;;;8.20;3.67;;;;;;;;;;5054196;28;20614;-91
2022/10/08 05:36:16;;;;;;;5.73;4.03;;;;;;;;;;5055038;28;20202;-92
2022/10/08 05:38:44;;;;;;;5.53;3.70;;;;;;;;;;5054869;28;20234;-91
2022/10/08 05:41:11;;;;;;;6.10;3.57;;;;;;;;;;5056110;28;20229;-92
2022/10/08 05:43:38;;;;;;;7.20;3.87;;;;;;;;;;5055896;28;20241;-92
2022/10/08 05:46:07;;;;;;;9.63;4.17;;;;;;;;;;5056596;28;20655;-93
2022/10/08 05:48:34;;;;;;;6.37;3.70;;;;;;;;;;5055269;28;20675;-93
2022/10/08 05:51:04;;;;;;;8.37;3.53;;;;;;;;;;5056054;28;20226;-91
2022/10/08 05:53:31;;;;;;;5.70;3.80;;;;;;;;;;5056025;28;20234;-93
2022/10/08 05:56:02;;;;;;;6.07;3.67;;;;;;;;;;5056239;28;20199;-91
2022/10/08 05:58:29;;;;;;;5.77;3.70;;;;;;;;;;5055484;28;20230;-91
2022/10/08 06:01:00;;;;;;;4.57;3.77;;;;;;;;;;5055289;28;20230;-90
2022/10/08 06:03:29;;;;;;;9.00;5.97;;;;;;;;;;5054644;28;20245;-92
2022/10/08 06:05:56;;;;;;;5.47;3.80;;;;;;;;;;5054161;28;20228;-90
2022/10/08 06:08:23;;;;;;;6.23;4.70;;;;;;;;;;5053430;28;20603;-88
2022/10/08 06:10:51;;;;;;;7.67;4.10;;;;;;;;;;5055344;28;20230;-90
2022/10/08 06:13:18;;;;;;;6.47;4.43;;;;;;;;;;5052980;28;20236;-88
2022/10/08 06:15:54;;;;;;;6.00;4.57;;;;;;;;;;5053124;28;20662;-87
2022/10/08 06:18:22;;;;;;;4.30;3.90;;;;;;;;;;5032652;28;20237;-87
2022/10/08 06:20:50;;;;;;;5.90;4.40;;;;;;;;;;5033294;28;20230;-87
2022/10/08 06:23:17;;;;;;;8.93;4.40;;;;;;;;;;5032354;28;20711;-87
2022/10/08 06:25:44;;;;;;;6.77;4.73;;;;;;;;;;5033068;28;20202;-87
2022/10/08 06:28:11;;;;;;;8.17;4.50;;;;;;;;;;5032342;28;20246;-87
2022/10/08 06:30:40;;;;;;;5.90;4.47;;;;;;;;;;5032765;28;20718;-87
2022/10/08 06:33:07;;;;;;;6.90;4.23;;;;;;;;;;5032556;28;20277;-86
2022/10/08 06:35:34;;;;;;;5.57;4.37;;;;;;;;;;5033271;28;20211;-87
2022/10/08 06:38:02;;;;;;;6.63;4.03;;;;;;;;;;5034354;28;20245;-87
2022/10/08 06:40:31;;;;;;;4.10;3.30;;;;;;;;;;5032968;28;20226;-86
2022/10/08 06:42:58;;;;;;;6.73;3.70;;;;;;;;;;5032369;28;20246;-86
2022/10/08 06:45:25;;;;;;;10.13;3.83;;;;;;;;;;5033017;28;20202;-86
2022/10/08 06:47:53;;;;;;;7.67;3.93;;;;;;;;;;5032943;28;20241;-87
2022/10/08 06:50:20;;;;;;;6.90;3.87;;;;;;;;;;5039294;28;20226;-87
2022/10/08 06:52:47;;;;;;;6.13;3.50;;;;;;;;;;5032858;28;20242;-87
2022/10/08 06:55:16;;;;;;;7.53;3.47;;;;;;;;;;5040046;28;20256;-85
2022/10/08 06:57:43;;;;;;;6.50;3.80;;;;;;;;;;5052772;28;20238;-85
2022/10/08 07:00:11;;;;;;;6.27;3.93;;;;;;;;;;5052848;28;20225;-85
2022/10/08 07:02:38;;;;;;;8.20;5.80;;;;;;;;;;5051848;28;20261;-86
2022/10/08 07:05:06;;;;;;;7.17;4.00;;;;;;;;;;5052591;28;20206;-87
2022/10/08 07:07:33;;;;;;;7.60;3.73;;;;;;;;;;5036907;28;20293;-88
2022/10/08 07:10:00;;;;;;;6.77;3.83;;;;;;;;;;5032650;28;20226;-87
2022/10/08 07:12:34;;;;;;;5.87;3.53;;;;;;;;;;5032013;28;20211;-87
2022/10/08 07:15:01;;;;;;;5.10;4.07;;;;;;;;;;5032746;28;20213;-87
2022/10/08 07:17:28;;;;;;;7.47;4.00;;;;;;;;;;5051759;28;20210;-87
2022/10/08 07:19:55;;;;;;;8.20;4.03;;;;;;;;;;5052610;28;20244;-87
2022/10/08 07:22:23;;;;;;;7.17;3.73;;;;;;;;;;5052153;28;20218;-88
2022/10/08 07:24:50;;;;;;;6.60;4.00;;;;;;;;;;5052474;28;20191;-87
2022/10/08 07:27:17;;;;;;;9.00;4.13;;;;;;;;;;5052016;28;20312;-87
2022/10/08 07:29:46;;;;;;;7.70;3.67;;;;;;;;;;5043303;28;20202;-88
2022/10/08 07:32:13;;;;;;;9.70;4.83;;;;;;;;;;5033195;28;20190;-87
2022/10/08 07:34:40;;;;;;;16.67;3.90;;;;;;;;;;5051555;28;20228;-87
2022/10/08 07:37:07;;;;;;;4.73;3.40;;;;;;;;;;5052941;28;20232;-87
2022/10/08 07:39:34;;;;;;;6.50;3.40;;;;;;;;;;5058675;28;20244;-88
2022/10/08 07:42:01;;;;;;;5.77;3.27;;;;;;;;;;5047703;28;20205;-89
2022/10/08 07:44:28;;;;;;;5.63;3.10;;;;;;;;;;5046092;28;20257;-89
2022/10/08 07:46:57;;;;;;;8.67;3.40;;;;;;;;;;5041361;28;20211;-87
2022/10/08 07:49:24;;;;;;;7.50;2.80;;;;;;;;;;5038087;28;20234;-87
2022/10/08 07:51:51;;;;;;;7.83;2.40;;;;;;;;;;5038990;28;20595;-88
2022/10/08 07:54:19;;;;;;;9.07;2.80;;;;;;;;;;5051710;28;20224;-88
2022/10/08 07:56:46;;;;;;;20.77;2.80;;;;;;;;;;5059185;28;20213;-89
2022/10/08 07:59:14;;;;;;;11.33;3.20;;;;;;;;;;5058312;28;20253;-88
2022/10/08 08:01:42;;;;;;;5.30;2.70;;;;;;;;;;5052906;28;20222;-88
2022/10/08 08:04:11;;;;;;;5.07;2.50;;;;;;;;;;5053791;28;20240;-88
2022/10/08 08:06:40;;;;;;;9.17;3.57;;;;;;;;;;5058708;28;20206;-88
2022/10/08 08:09:07;;;;;;;4.83;2.43;;;;;;;;;;5058215;28;20241;-90
2022/10/08 08:11:34;;;;;;;7.90;2.30;;;;;;;;;;5058989;28;20781;-90
2022/10/08 08:14:01;;;;;;;4.30;2.57;;;;;;;;;;5043925;28;20702;-89
2022/10/08 08:16:29;;;;;;;5.10;2.60;;;;;;;;;;5038851;28;20261;-87
2022/10/08 08:18:57;;;;;;;5.50;2.33;;;;;;;;;;5038213;28;20231;-88
2022/10/08 08:21:27;;;;;;;6.27;2.33;;;;;;;;;;5038491;28;20853;-86
2022/10/08 08:23:55;;;;;;;8.83;2.50;;;;;;;;;;5038164;28;20231;-88
2022/10/08 08:26:23;;;;;;;5.97;1.93;;;;;;;;;;5049586;28;20198;-87
2022/10/08 08:28:51;;;;;;;9.53;2.50;;;;;;;;;;5058087;28;20237;-89
2022/10/08 08:31:19;;;;;;;6.93;2.70;;;;;;;;;;5058934;28;20284;-88
2022/10/08 08:33:49;;;;;;;7.77;2.70;;;;;;;;;;5058512;28;20709;-88
2022/10/08 08:36:16;;;;;;;4.17;2.30;;;;;;;;;;5048346;28;20202;-88
2022/10/08 08:38:45;;;;;;;7.30;2.60;;;;;;;;;;5037950;28;20721;-87
2022/10/08 08:41:19;;;;;;;4.30;2.20;;;;;;;;;;5038322;28;20237;-86
2022/10/08 08:43:46;;;;;;;9.40;2.50;;;;;;;;;;5047974;28;20222;-87
2022/10/08 08:46:14;;;;;;;5.57;2.77;;;;;;;;;;5034698;28;20214;-87
2022/10/08 08:48:44;;;;;;;7.60;2.53;;;;;;;;;;5034547;28;20226;-87
2022/10/08 08:51:11;;;;;;;3.20;2.07;;;;;;;;;;5035951;28;20281;-90
2022/10/08 08:53:38;;;;;;;8.77;2.80;;;;;;;;;;5035240;28;20226;-92
2022/10/08 08:56:08;;;;;;;4.13;2.40;;;;;;;;;;5035695;28;20206;-91
2022/10/08 08:58:38;;;;;;;5.33;2.30;;;;;;;;;;5034641;28;20607;-91
2022/10/08 09:01:12;;;;;;;8.47;2.50;;;;;;;;;;5044101;28;20325;-90
2022/10/08 09:03:42;;;;;;;5.20;2.03;;;;;;;;;;5034822;28;20756;-91
2022/10/08 09:06:10;;;;;;;7.27;2.50;;;;;;;;;;5035638;28;20230;-91
2022/10/08 09:08:40;;;;;;;5.13;2.53;;;;;;;;;;5034554;28;20242;-91
2022/10/08 09:11:12;;;;;;;5.97;2.30;;;;;;;;;;5034823;28;20231;-91
2022/10/08 09:13:41;;;;;;;4.20;2.10;;;;;;;;;;5034698;28;20230;-90
2022/10/08 09:16:11;;;;;;;5.87;2.40;;;;;;;;;;5034865;28;20202;-91
2022/10/08 09:18:38;;;;;;;3.77;2.10;;;;;;;;;;5034343;28;20242;-87
2022/10/08 09:21:05;;;;;;;3.53;2.23;;;;;;;;;;5034925;28;20234;-90
2022/10/08 09:23:33;;;;;;;3.03;2.00;;;;;;;;;;5034216;28;20608;-89
2022/10/08 09:26:03;;;;;;;4.73;2.20;;;;;;;;;;5034673;28;20269;-89
2022/10/08 09:28:39;;;;;;;2.90;2.10;;;;;;;;;;5034228;28;20241;-90
2022/10/08 09:31:11;;;;;;;2.17;1.90;;;;;;;;;;5034714;28;20236;-90
2022/10/08 09:33:39;;;;;;;4.57;2.07;;;;;;;;;;5053733;28;20225;-88
2022/10/08 09:36:06;;;;;;;5.90;1.97;;;;;;;;;;5054374;28;20209;-88
2022/10/08 09:38:35;;;;;;;4.23;2.00;;;;;;;;;;5053740;28;20238;-88
2022/10/08 09:41:04;;;;;;;4.97;2.00;;;;;;;;;;5054104;28;20218;-82
2022/10/08 09:43:32;;;;;;;6.07;2.00;;;;;;;;;;5033408;28;20238;-81
2022/10/08 09:46:04;;;;;;;3.63;1.97;;;;;;;;;;5058118;28;20224;-82
2022/10/08 09:48:31;;;;;;;4.00;1.90;;;;;;;;;;5072725;28;20237;-82
2022/10/08 09:51:03;;;;;;;7.10;2.30;;;;;;;;;;5073360;28;20232;-83
2022/10/08 09:53:33;;;;;;;6.27;3.07;;;;;;;;;;5056515;28;20248;-81
2022/10/08 09:56:01;;;;;;;4.23;1.90;;;;;;;;;;5046455;28;20201;-83
2022/10/08 09:58:30;;;;;;;2.27;1.70;;;;;;;;;;5042710;28;20235;-82
2022/10/08 10:01:03;;;;;;;5.57;1.90;;;;;;;;;;5044117;28;20222;-83
2022/10/08 10:03:31;;;;;;;5.15;2.10;;;;;;;;;;5041619;28;20234;-82
2022/10/08 10:05:59;;;;;;;3.45;1.67;;;;;;;;;;5044514;28;20260;-83
2022/10/08 10:08:42;;;;;;;4.35;1.77;;;;;;;;;;5046302;28;20231;-84
2022/10/08 10:11:10;;;;;;;5.68;2.00;;;;;;;;;;5047355;28;20222;-82
2022/10/08 10:13:41;;;;;;;4.80;2.45;;;;;;;;;;5041401;28;20441;-81
2022/10/08 10:16:12;;;;;;;4.43;1.83;;;;;;;;;;5039808;28;20289;-81
2022/10/08 10:18:44;;;;;;;6.57;1.80;;;;;;;;;;5040908;28;20314;-83
2022/10/08 10:21:14;;;;;;;2.35;1.85;;;;;;;;;;5038806;28;20567;-82
2022/10/08 10:23:46;;;;;;;5.85;1.88;;;;;;;;;;5046421;28;20230;-81
2022/10/08 10:26:17;;;;;;;5.95;1.77;;;;;;;;;;5043847;28;20205;-82
2022/10/08 10:28:46;;;;;;;4.97;1.40;;;;;;;;;;5039972;28;20233;-82
2022/10/08 10:31:17;;;;;;;5.18;1.42;;;;;;;;;;5038406;28;20229;-82
2022/10/08 10:33:48;;;;;;;5.60;1.90;;;;;;;;;;5046399;28;20628;-84
2022/10/08 10:36:17;;;;;;;3.58;1.85;;;;;;;;;;5052336;28;20202;-81
2022/10/08 10:38:47;;;;;;;6.60;2.03;;;;;;;;;;5051299;28;20233;-82
2022/10/08 10:41:18;;;;;;;3.63;2.47;;;;;;;;;;5035925;28;20269;-80
2022/10/08 10:43:46;;;;;;;3.63;1.80;;;;;;;;;;5033433;28;20718;-82
2022/10/08 10:46:19;;;;;;;4.50;1.42;;;;;;;;;;5048852;28;20613;-82
2022/10/08 10:48:46;;;;;;;2.58;1.60;;;;;;;;;;5051682;28;20233;-82
2022/10/08 10:51:34;;;;;;;4.40;1.67;;;;;;;;;;5052070;28;20220;-82
2022/10/08 10:54:07;;;;;;;4.03;1.65;;;;;;;;;;5046860;28;20230;-83
2022/10/08 10:56:37;;;;;;;4.13;1.50;;;;;;;;;;5052277;28;20210;-83
2022/10/08 10:59:19;;;;;;;3.53;1.70;;;;;;;;;;5051523;28;20613;-83
2022/10/08 11:01:52;;;;;;;3.22;1.45;;;;;;;;;;5052241;28;20233;-81
2022/10/08 11:04:24;;;;;;;2.65;1.42;;;;;;;;;;5051327;28;20237;-81
2022/10/08 11:06:57;;;;;;;3.83;1.35;;;;;;;;;;5051928;28;20203;-80
2022/10/08 11:09:31;;;;;;;4.68;1.67;;;;;;;;;;5050924;28;20260;-82
2022/10/08 11:12:02;;;;;;;4.53;2.00;;;;;;;;;;5051933;28;20225;-82
2022/10/08 11:14:36;;;;;;;3.88;1.45;;;;;;;;;;5051349;28;20234;-81
2022/10/08 11:17:09;;;;;;;2.28;1.23;;;;;;;;;;5052116;28;20193;-83
2022/10/08 11:19:42;;;;;;;1.85;1.33;;;;;;;;;;5051361;28;20250;-80
2022/10/08 11:22:13;;;;;;;2.47;1.35;;;;;;;;;;5052613;28;20214;-81
2022/10/08 11:25:01;;;;;;;6.90;1.52;;;;;;;;;;5051918;28;20233;-81
2022/10/08 11:27:33;;;;;;;5.65;2.25;;;;;;;;;;5048223;28;20302;-82
2022/10/08 11:30:03;;;;;;;3.53;1.30;;;;;;;;;;5050020;28;20882;-81
2022/10/08 11:32:32;;;;;;;3.17;1.23;;;;;;;;;;5051438;28;20194;-82
2022/10/08 11:35:03;;;;;;;4.82;1.50;;;;;;;;;;5051943;28;20213;-81
2022/10/08 11:37:33;;;;;;;3.30;1.70;;;;;;;;;;5051178;28;20196;-82
2022/10/08 11:40:03;;;;;;;4.43;1.38;;;;;;;;;;5051747;28;20241;-82
2022/10/08 11:42:33;;;;;;;1.58;1.10;;;;;;;;;;5051212;28;20205;-82
2022/10/08 11:45:13;;;;;;;1.80;1.58;;;;;;;;;;5051504;28;20588;-82
2022/10/08 11:47:53;;;;;;;3.33;1.58;;;;;;;;;;5051193;28;20244;-82
2022/10/08 11:50:27;;;;;;;3.03;1.75;;;;;;;;;;5051733;28;20597;-81
2022/10/08 11:52:56;;;;;;;4.85;1.95;;;;;;;;;;5051246;28;20233;-82
2022/10/08 11:55:25;;;;;;;2.80;1.45;;;;;;;;;;5051304;28;20210;-83
2022/10/08 11:57:57;;;;;;;3.15;1.65;;;;;;;;;;5050832;28;20237;-82
2022/10/08 12:00:39;;;;;;;6.00;1.77;;;;;;;;;;5051421;28;20226;-82
2022/10/08 12:03:20;;;;;;;2.38;1.35;;;;;;;;;;5049731;28;20244;-82
2022/10/08 12:05:50;;;;;;;2.92;1.50;;;;;;;;;;5051435;28;20225;-82
2022/10/08 12:08:32;;;;;;;5.43;1.85;;;;;;;;;;5050675;28;20260;-82
2022/10/08 12:11:19;;;;;;;4.72;2.25;;;;;;;;;;5051503;28;20241;-82
2022/10/08 12:14:06;;;;;;;4.10;1.60;;;;;;;;;;5050768;28;20237;-82
2022/10/08 12:16:48;;;;;;;2.78;1.58;;;;;;;;;;5051183;28;20216;-82
2022/10/08 12:19:30;;;;;;;6.35;2.28;;;;;;;;;;5052147;28;20245;-82
2022/10/08 12:21:59;;;;;;;5.47;1.92;;;;;;;;;;5054852;28;20233;-82
2022/10/08 12:24:45;;;;;;;5.35;2.95;;;;;;;;;;5054144;28;20233;-83
2022/10/08 12:27:22;;;;;;;4.90;1.33;;;;;;;;;;5054731;28;20220;-82
2022/10/08 12:29:56;;;;;;;4.53;1.75;;;;;;;;;;5054191;28;20217;-82
2022/10/08 12:32:24;;;;;;;3.78;1.90;;;;;;;;;;5054164;28;20225;-82
2022/10/08 12:34:51;;;;;;;5.00;1.90;;;;;;;;;;5054360;28;20749;-82
2022/10/08 12:37:26;;;;;;;2.05;1.52;;;;;;;;;;5054188;28;20225;-83
2022/10/08 12:39:54;;;;;;;3.40;1.52;;;;;;;;;;5054430;28;20189;-82
2022/10/08 12:42:23;;;;;;;2.65;1.42;;;;;;;;;;5053823;28;20206;-84
2022/10/08 12:44:57;;;;;;;2.42;1.73;;;;;;;;;;5054153;28;20237;-82
2022/10/08 12:47:28;;;;;;;2.95;1.50;;;;;;;;;;5053860;28;20205;-83
2022/10/08 12:49:59;;;;;;;3.30;1.70;;;;;;;;;;5054426;28;20206;-82
2022/10/08 12:52:27;;;;;;;1.77;1.30;;;;;;;;;;5053797;28;20682;-83
2022/10/08 12:54:55;;;;;;;2.80;1.52;;;;;;;;;;5054345;28;20206;-83
2022/10/08 12:57:24;;;;;;;3.75;1.55;;;;;;;;;;5053945;28;20202;-83
2022/10/08 12:59:51;;;;;;;3.65;1.30;;;;;;;;;;5053987;28;20206;-82
2022/10/08 13:02:28;;;;;;;3.92;1.75;;;;;;;;;;5053825;28;20217;-83
2022/10/08 13:04:55;;;;;;;2.78;1.73;;;;;;;;;;5054128;28;20230;-82
2022/10/08 13:07:27;;;;;;;3.65;1.60;;;;;;;;;;5053722;28;20214;-83
2022/10/08 13:09:56;;;;;;;2.25;1.60;;;;;;;;;;5054268;28;20301;-83
2022/10/08 13:12:23;;;;;;;2.08;1.50;;;;;;;;;;5050603;28;21876;-83
2022/10/08 13:14:58;;;;;;;3.38;1.80;;;;;;;;;;5034245;28;20260;-82
2022/10/08 13:17:29;;;;;;;1.95;1.33;;;;;;;;;;5035935;28;20682;-82
2022/10/08 13:20:05;;;;;;;5.45;1.73;;;;;;;;;;5033869;28;20686;-82
2022/10/08 13:22:32;;;;;;;3.25;1.58;;;;;;;;;;5045326;28;20670;-81
2022/10/08 13:25:02;;;;;;;2.45;1.67;;;;;;;;;;5053887;28;20226;-82
2022/10/08 13:27:30;;;;;;;3.67;1.50;;;;;;;;;;5053044;28;20210;-85
2022/10/08 13:29:57;;;;;;;1.98;1.48;;;;;;;;;;5044613;28;20214;-82
2022/10/08 13:32:25;;;;;;;1.75;1.63;;;;;;;;;;5043612;28;20206;-82
2022/10/08 13:34:53;;;;;;;5.68;2.20;;;;;;;;;;5052777;28;20733;-82
2022/10/08 13:37:31;;;;;;;3.05;1.70;;;;;;;;;;5042675;28;20671;-82
2022/10/08 13:39:59;;;;;;;2.00;1.40;;;;;;;;;;5041603;28;20258;-82
2022/10/08 13:42:29;;;;;;;3.25;1.75;;;;;;;;;;5039259;28;20215;-82
2022/10/08 13:44:57;;;;;;;2.47;1.75;;;;;;;;;;5042537;28;20218;-81
2022/10/08 13:47:24;;;;;;;3.83;1.60;;;;;;;;;;5038957;28;20569;-82
2022/10/08 13:49:54;;;;;;;3.95;1.70;;;;;;;;;;5044572;28;20202;-81
2022/10/08 13:52:23;;;;;;;4.30;2.00;;;;;;;;;;5044513;28;20213;-82
2022/10/08 13:54:51;;;;;;;3.00;1.65;;;;;;;;;;5038949;28;20187;-81
2022/10/08 13:57:18;;;;;;;4.35;1.67;;;;;;;;;;5041239;28;20248;-82
2022/10/08 13:59:46;;;;;;;2.75;1.80;;;;;;;;;;5042081;28;20203;-82
2022/10/08 14:02:14;;;;;;;3.78;1.70;;;;;;;;;;5040846;28;20745;-81
2022/10/08 14:04:41;;;;;;;3.67;1.60;;;;;;;;;;5046930;28;20857;-82
2022/10/08 14:07:14;;;;;;;3.00;1.63;;;;;;;;;;5033628;28;20671;-82
2022/10/08 14:09:41;;;;;;;6.47;1.80;;;;;;;;;;5032729;28;20713;-82
2022/10/08 14:12:10;;;;;;;2.72;1.65;;;;;;;;;;5044598;28;20209;-82
2022/10/08 14:14:37;;;;;;;4.18;1.77;;;;;;;;;;5052362;28;20249;-84
2022/10/08 14:17:05;;;;;;;4.07;1.60;;;;;;;;;;5052948;28;20202;-83
2022/10/08 14:19:32;;;;;;;3.35;1.60;;;;;;;;;;5052242;28;20606;-83
2022/10/08 14:21:59;;;;;;;2.03;1.35;;;;;;;;;;5052905;28;20591;-83
2022/10/08 14:24:29;;;;;;;4.10;1.40;;;;;;;;;;5052411;28;20237;-82
2022/10/08 14:26:56;;;;;;;3.47;1.70;;;;;;;;;;5052875;28;20205;-83
2022/10/08 14:29:23;;;;;;;2.08;1.48;;;;;;;;;;5052016;28;20756;-83
2022/10/08 14:31:50;;;;;;;3.25;1.55;;;;;;;;;;5052088;28;20717;-85
2022/10/08 14:34:18;;;;;;;5.55;1.77;;;;;;;;;;5052246;28;20233;-85
2022/10/08 14:36:46;;;;;;;4.65;2.08;;;;;;;;;;5052616;28;20202;-82
2022/10/08 14:39:13;;;;;;;2.65;1.55;;;;;;;;;;5051683;28;20230;-84
2022/10/08 14:41:42;;;;;;;7.05;1.92;;;;;;;;;;5052069;28;20218;-84
2022/10/08 14:44:10;;;;;;;2.38;1.92;;;;;;;;;;5051609;28;20245;-84
2022/10/08 14:46:37;;;;;;;1.98;1.48;;;;;;;;;;5052590;28;20252;-84
2022/10/08 14:49:05;;;;;;;1.90;1.50;;;;;;;;;;5051736;28;20726;-84
2022/10/08 14:51:37;;;;;;;2.65;1.50;;;;;;;;;;5052472;28;20229;-84
2022/10/08 14:54:04;;;;;;;3.78;1.45;;;;;;;;;;5037872;28;20229;-84